Time;durP1;ratioP1;P1;durP2;ratioP2;P2;SDS_P1;SDS_P2;PMS_P1;PMS_P2;Temp;Humidity;BMP_temperature;BMP_pressure;BME280_temperature;BME280_humidity;BME280_pressure;Samples;Min_cycle;Max_cycle;Signal;HPM_P1;HPM_P2
2023/09/05 00:02:08;;;;;;;4.20;1.48;;;;;;;18.93;100.00;101464.59;5055636;28;20079;-68
2023/09/05 00:04:35;;;;;;;4.70;1.55;;;;;;;18.86;100.00;101457.97;5070160;28;20054;-68
2023/09/05 00:07:02;;;;;;;4.35;1.45;;;;;;;18.82;100.00;101467.03;5056308;28;20051;-67
2023/09/05 00:09:29;;;;;;;3.92;1.70;;;;;;;18.59;100.00;101462.16;5061563;28;20060;-67
2023/09/05 00:11:55;;;;;;;4.43;1.52;;;;;;;18.48;100.00;101466.38;5064025;28;20053;-68
2023/09/05 00:14:22;;;;;;;6.25;1.73;;;;;;;18.43;100.00;101452.53;5063069;28;20048;-70
2023/09/05 00:16:48;;;;;;;4.30;1.48;;;;;;;18.46;100.00;101455.84;5068372;28;20508;-68
2023/09/05 00:19:15;;;;;;;4.63;1.70;;;;;;;18.38;100.00;101461.63;5060621;28;20051;-68
2023/09/05 00:21:45;;;;;;;4.30;1.60;;;;;;;18.47;100.00;101460.22;5061918;28;20383;-68
2023/09/05 00:24:31;;;;;;;4.05;1.60;;;;;;;18.47;100.00;101464.66;5055826;28;20530;-68
2023/09/05 00:27:00;;;;;;;5.78;1.80;;;;;;;18.57;100.00;101461.41;5057491;28;20068;-68
2023/09/05 00:29:30;;;;;;;6.55;2.00;;;;;;;18.46;100.00;101457.66;5051385;28;20082;-68
2023/09/05 00:32:01;;;;;;;7.07;1.75;;;;;;;18.46;100.00;101466.47;5068167;28;20883;-68
2023/09/05 00:34:33;;;;;;;6.95;2.00;;;;;;;18.17;100.00;101466.38;5069885;28;20059;-68
2023/09/05 00:37:01;;;;;;;4.88;1.77;;;;;;;18.10;100.00;101466.84;5069237;28;20056;-68
2023/09/05 00:39:28;;;;;;;6.32;2.05;;;;;;;18.07;100.00;101470.50;5066554;28;20067;-68
2023/09/05 00:41:56;;;;;;;6.68;1.90;;;;;;;18.03;100.00;101471.63;5067176;28;20124;-68
2023/09/05 00:44:26;;;;;;;5.30;1.60;;;;;;;18.24;100.00;101466.00;5069657;28;20055;-68
2023/09/05 00:46:55;;;;;;;6.20;1.90;;;;;;;18.30;100.00;101468.31;5062344;28;20052;-68
2023/09/05 00:49:27;;;;;;;6.97;2.20;;;;;;;18.17;100.00;101462.88;5065393;28;20045;-67
2023/09/05 00:51:59;;;;;;;4.55;1.40;;;;;;;18.14;100.00;101455.94;5064304;28;20049;-68
2023/09/05 00:54:26;;;;;;;7.03;1.80;;;;;;;18.00;100.00;101469.16;5064692;28;20044;-68
2023/09/05 00:56:53;;;;;;;5.93;1.88;;;;;;;17.94;100.00;101454.47;5061970;28;20430;-68
2023/09/05 00:59:20;;;;;;;6.13;1.85;;;;;;;18.00;100.00;101466.50;5053275;28;20045;-68
2023/09/05 01:01:48;;;;;;;5.80;1.95;;;;;;;18.09;100.00;101443.91;5063379;28;20056;-68
2023/09/05 01:04:16;;;;;;;5.40;1.77;;;;;;;18.02;100.00;101456.66;5050900;28;20045;-68
2023/09/05 01:06:52;;;;;;;5.53;1.85;;;;;;;17.99;100.00;101470.09;5060425;28;20052;-68
2023/09/05 01:09:18;;;;;;;7.90;2.10;;;;;;;17.64;100.00;101470.25;5057182;28;20684;-68
2023/09/05 01:11:45;;;;;;;8.30;2.20;;;;;;;17.44;100.00;101468.69;5050844;28;20429;-67
2023/09/05 01:14:13;;;;;;;5.25;1.85;;;;;;;17.64;100.00;101468.47;5064343;28;20084;-68
2023/09/05 01:16:43;;;;;;;5.68;1.85;;;;;;;17.80;100.00;101457.84;5067616;28;20059;-68
2023/09/05 01:19:14;;;;;;;5.55;1.80;;;;;;;17.83;100.00;101459.50;5060315;28;20063;-68
2023/09/05 01:22:12;;;;;;;7.95;2.08;;;;;;;17.75;100.00;101462.56;5067816;28;20071;-68
2023/09/05 01:24:40;;;;;;;5.40;1.98;;;;;;;17.75;100.00;101456.41;5064197;28;20106;-68
2023/09/05 01:27:09;;;;;;;4.18;1.50;;;;;;;17.80;100.00;101462.31;5068692;28;20041;-68
2023/09/05 01:29:36;;;;;;;3.88;1.55;;;;;;;17.88;100.00;101473.34;5065482;28;20060;-68
2023/09/05 01:32:04;;;;;;;4.38;1.67;;;;;;;17.73;100.00;101471.53;5067249;28;20071;-68
2023/09/05 01:34:31;;;;;;;5.68;1.80;;;;;;;17.68;100.00;101481.53;5067715;28;20052;-68
2023/09/05 01:36:58;;;;;;;4.90;1.75;;;;;;;17.61;100.00;101478.38;5068916;28;20049;-67
2023/09/05 01:39:25;;;;;;;5.05;1.80;;;;;;;17.34;100.00;101480.75;5060919;28;20041;-67
2023/09/05 01:41:52;;;;;;;6.50;1.75;;;;;;;17.26;100.00;101478.50;5060431;28;20051;-69
2023/09/05 01:44:19;;;;;;;5.28;1.75;;;;;;;17.52;100.00;101476.22;5066182;28;20060;-69
2023/09/05 01:46:45;;;;;;;6.38;1.88;;;;;;;17.56;100.00;101481.25;5068357;28;20482;-69
2023/09/05 01:49:12;;;;;;;5.28;1.80;;;;;;;17.44;100.00;101482.81;5062260;28;20092;-69
2023/09/05 01:51:39;;;;;;;7.18;2.38;;;;;;;17.20;100.00;101474.38;5067783;28;20457;-69
2023/09/05 01:54:05;;;;;;;6.72;2.08;;;;;;;17.36;100.00;101473.56;5068349;28;20048;-69
2023/09/05 01:56:32;;;;;;;5.80;1.90;;;;;;;17.01;100.00;101463.94;5068986;28;20055;-69
2023/09/05 01:58:59;;;;;;;4.80;1.88;;;;;;;17.17;100.00;101484.28;5069091;28;20051;-69
2023/09/05 02:01:27;;;;;;;3.78;1.52;;;;;;;17.16;100.00;101472.84;5067916;28;20045;-69
2023/09/05 02:03:54;;;;;;;6.60;1.90;;;;;;;17.07;100.00;101476.84;5069507;28;20048;-69
2023/09/05 02:06:21;;;;;;;5.88;1.98;;;;;;;17.04;100.00;101478.78;5071138;28;20131;-69
2023/09/05 02:08:48;;;;;;;3.47;1.40;;;;;;;17.22;100.00;101475.16;5072308;28;20045;-69
2023/09/05 02:11:14;;;;;;;4.80;1.63;;;;;;;17.30;100.00;101484.47;5066515;28;20045;-69
2023/09/05 02:13:41;;;;;;;4.57;1.55;;;;;;;17.46;100.00;101488.88;5071611;28;20049;-69
2023/09/05 02:16:08;;;;;;;5.53;1.50;;;;;;;17.38;100.00;101484.91;5071584;28;20045;-69
2023/09/05 02:18:34;;;;;;;4.10;1.50;;;;;;;17.12;100.00;101492.44;5064104;28;20051;-69
2023/09/05 02:21:02;;;;;;;4.28;1.40;;;;;;;17.06;100.00;101490.16;5070122;28;20070;-70
2023/09/05 02:23:29;;;;;;;3.40;1.33;;;;;;;17.26;100.00;101500.53;5071405;28;20498;-69
2023/09/05 02:26:00;;;;;;;3.58;1.30;;;;;;;17.26;100.00;101503.19;5071299;28;20058;-69
2023/09/05 02:28:28;;;;;;;3.42;1.35;;;;;;;17.02;100.00;101493.91;5070984;28;20079;-69
2023/09/05 02:30:55;;;;;;;2.70;1.20;;;;;;;17.26;100.00;101505.84;5066668;28;20059;-69
2023/09/05 02:33:22;;;;;;;7.20;1.90;;;;;;;17.05;100.00;101497.25;5072212;28;20049;-69
2023/09/05 02:35:50;;;;;;;3.67;1.30;;;;;;;16.95;100.00;101493.38;5072302;28;20084;-68
2023/09/05 02:38:17;;;;;;;3.90;1.80;;;;;;;16.98;100.00;101501.16;5072140;28;20065;-69
2023/09/05 02:40:47;;;;;;;4.75;1.48;;;;;;;16.99;100.00;101499.34;5070422;28;20050;-69
2023/09/05 02:43:13;;;;;;;3.47;1.45;;;;;;;16.90;100.00;101500.69;5072035;28;20131;-69
2023/09/05 02:45:40;;;;;;;3.90;1.42;;;;;;;16.84;100.00;101501.00;5069892;28;20055;-69
2023/09/05 02:48:07;;;;;;;2.63;1.40;;;;;;;16.82;100.00;101516.91;5069568;28;20055;-68
2023/09/05 02:50:34;;;;;;;5.10;1.67;;;;;;;16.64;100.00;101502.84;5069780;28;20052;-68
2023/09/05 02:53:01;;;;;;;4.22;1.55;;;;;;;16.76;100.00;101487.28;5064822;28;20053;-69
2023/09/05 02:55:27;;;;;;;6.25;1.65;;;;;;;16.64;100.00;101489.63;5065950;28;20052;-69
2023/09/05 02:57:54;;;;;;;4.60;1.60;;;;;;;16.39;100.00;101489.16;5071693;28;20052;-68
2023/09/05 03:00:22;;;;;;;4.50;1.70;;;;;;;16.29;100.00;101496.69;5070677;28;20497;-69
2023/09/05 03:02:49;;;;;;;4.90;1.65;;;;;;;16.06;100.00;101503.06;5071689;28;20052;-69
2023/09/05 03:05:16;;;;;;;4.82;1.70;;;;;;;16.48;100.00;101510.72;5071688;28;20046;-68
2023/09/05 03:07:45;;;;;;;6.45;1.80;;;;;;;16.47;100.00;101508.13;5070678;28;20394;-68
2023/09/05 03:10:11;;;;;;;6.22;2.00;;;;;;;16.40;100.00;101501.44;5070610;28;20049;-68
2023/09/05 03:12:38;;;;;;;5.65;1.42;;;;;;;16.51;100.00;101513.16;5070668;28;20059;-69
2023/09/05 03:15:05;;;;;;;5.00;1.58;;;;;;;16.27;100.00;101507.34;5070779;28;20056;-69
2023/09/05 03:17:32;;;;;;;4.63;1.50;;;;;;;16.29;100.00;101516.03;5070804;28;20050;-67
2023/09/05 03:19:58;;;;;;;3.90;1.30;;;;;;;16.44;100.00;101516.22;5069680;28;20525;-68
2023/09/05 03:22:25;;;;;;;5.00;1.50;;;;;;;15.94;100.00;101484.25;5065437;28;20053;-68
2023/09/05 03:24:52;;;;;;;7.20;1.80;;;;;;;16.19;100.00;101517.41;5068578;28;20167;-68
2023/09/05 03:27:18;;;;;;;8.13;1.85;;;;;;;16.43;100.00;101514.50;5066504;28;20041;-68
2023/09/05 03:29:45;;;;;;;3.05;1.30;;;;;;;16.31;100.00;101516.81;5052762;28;20414;-68
2023/09/05 03:32:12;;;;;;;3.15;1.38;;;;;;;16.34;100.00;101523.72;5065315;28;20055;-67
2023/09/05 03:34:48;;;;;;;3.78;1.40;;;;;;;16.44;100.00;101534.72;5063405;28;20055;-68
2023/09/05 03:37:16;;;;;;;4.75;1.42;;;;;;;16.37;100.00;101534.16;5056765;28;20425;-68
2023/09/05 03:39:42;;;;;;;5.78;1.70;;;;;;;16.37;100.00;101533.31;5068175;28;20135;-68
2023/09/05 03:42:12;;;;;;;4.38;1.40;;;;;;;16.28;100.00;101527.53;5069792;28;20052;-68
2023/09/05 03:44:38;;;;;;;4.55;1.50;;;;;;;16.19;100.00;101524.50;5070891;28;20419;-68
2023/09/05 03:47:05;;;;;;;3.75;1.40;;;;;;;16.08;100.00;101520.59;5069929;28;20040;-68
2023/09/05 03:49:32;;;;;;;4.93;1.52;;;;;;;16.17;100.00;101521.06;5070549;28;20056;-69
2023/09/05 03:51:58;;;;;;;4.28;1.33;;;;;;;16.27;100.00;101524.97;5058859;28;20504;-69
2023/09/05 03:54:25;;;;;;;3.85;1.40;;;;;;;16.25;100.00;101535.59;5053606;28;20471;-69
2023/09/05 03:56:52;;;;;;;3.85;1.40;;;;;;;16.08;100.00;101511.81;5064972;28;20053;-69
2023/09/05 03:59:18;;;;;;;2.92;1.27;;;;;;;16.15;100.00;101534.34;5061493;28;20048;-69
2023/09/05 04:01:48;;;;;;;3.65;1.40;;;;;;;15.93;100.00;101532.72;5063602;28;20056;-69
2023/09/05 04:04:15;;;;;;;4.32;1.50;;;;;;;15.99;100.00;101526.31;5056653;28;20044;-69
2023/09/05 04:06:42;;;;;;;3.22;1.38;;;;;;;16.06;100.00;101527.72;5070410;28;20052;-69
2023/09/05 04:09:08;;;;;;;2.97;1.10;;;;;;;16.10;100.00;101528.44;5056402;28;20044;-69
2023/09/05 04:11:35;;;;;;;5.30;1.33;;;;;;;16.24;100.00;101531.25;5070294;28;20409;-68
2023/09/05 04:14:02;;;;;;;3.42;1.40;;;;;;;16.18;100.00;101541.25;5051598;28;20470;-69
2023/09/05 04:16:29;;;;;;;4.50;1.25;;;;;;;16.10;100.00;101531.94;5061385;28;20206;-68
2023/09/05 04:18:55;;;;;;;4.90;1.65;;;;;;;16.04;100.00;101534.88;5058407;28;20047;-68
2023/09/05 04:21:22;;;;;;;5.25;1.70;;;;;;;15.96;100.00;101528.25;5051161;28;20045;-68
2023/09/05 04:23:49;;;;;;;6.25;1.75;;;;;;;15.61;100.00;101536.84;5053994;28;20045;-68
2023/09/05 04:26:15;;;;;;;6.82;1.98;;;;;;;15.52;100.00;101527.56;5059590;28;20071;-68
2023/09/05 04:28:42;;;;;;;7.30;2.08;;;;;;;15.81;100.00;101538.59;5064592;28;20053;-68
2023/09/05 04:31:09;;;;;;;6.22;1.60;;;;;;;15.77;100.00;101542.28;5057906;28;20054;-68
2023/09/05 04:33:40;;;;;;;7.03;2.28;;;;;;;15.67;100.00;101540.97;5068112;28;20414;-69
2023/09/05 04:36:08;;;;;;;4.43;1.42;;;;;;;15.50;100.00;101537.34;5069896;28;20486;-68
2023/09/05 04:38:36;;;;;;;4.85;1.73;;;;;;;15.48;100.00;101526.00;5067701;28;20056;-69
2023/09/05 04:41:03;;;;;;;3.90;1.52;;;;;;;15.27;100.00;101530.44;5063830;28;20332;-69
2023/09/05 04:43:30;;;;;;;3.58;1.50;;;;;;;15.25;100.00;101545.50;5069778;28;20716;-69
2023/09/05 04:45:57;;;;;;;4.78;1.60;;;;;;;15.25;100.00;101542.88;5055430;28;20052;-70
2023/09/05 04:48:24;;;;;;;3.42;1.48;;;;;;;15.11;100.00;101546.09;5067819;28;20490;-68
2023/09/05 04:50:51;;;;;;;5.50;1.75;;;;;;;14.81;100.00;101540.38;5069191;28;20048;-68
2023/09/05 04:53:18;;;;;;;4.03;1.40;;;;;;;14.81;100.00;101519.28;5070227;28;20585;-69
2023/09/05 04:55:45;;;;;;;6.00;1.90;;;;;;;14.91;100.00;101522.38;5066614;28;20135;-69
2023/09/05 04:58:12;;;;;;;6.82;2.22;;;;;;;15.05;100.00;101522.66;5063644;28;20055;-69
2023/09/05 05:00:40;;;;;;;4.07;1.50;;;;;;;15.21;100.00;101533.38;5063316;28;20107;-69
2023/09/05 05:03:07;;;;;;;6.68;2.15;;;;;;;15.24;100.00;101530.59;5069451;28;20412;-68
2023/09/05 05:05:34;;;;;;;7.97;1.90;;;;;;;15.35;100.00;101541.53;5068641;28;20079;-68
2023/09/05 05:08:00;;;;;;;6.28;1.98;;;;;;;15.13;100.00;101548.69;5069707;28;20532;-68
2023/09/05 05:10:27;;;;;;;5.60;1.85;;;;;;;15.07;100.00;101543.66;5065776;28;20053;-69
2023/09/05 05:12:54;;;;;;;5.35;1.75;;;;;;;15.19;100.00;101546.63;5061939;28;20052;-68
2023/09/05 05:15:20;;;;;;;5.63;2.10;;;;;;;15.13;100.00;101531.06;5067944;28;20574;-69
2023/09/05 05:17:47;;;;;;;5.18;1.75;;;;;;;15.21;100.00;101549.22;5063144;28;20086;-68
2023/09/05 05:20:14;;;;;;;5.60;1.80;;;;;;;15.04;100.00;101538.53;5067345;28;20509;-68
2023/09/05 05:22:40;;;;;;;9.02;2.10;;;;;;;15.27;100.00;101563.91;5056481;28;20060;-69
2023/09/05 05:25:08;;;;;;;5.30;1.80;;;;;;;15.19;100.00;101551.91;5067216;28;20049;-68
2023/09/05 05:27:34;;;;;;;5.72;2.05;;;;;;;15.27;100.00;101559.47;5063726;28;20056;-69
2023/09/05 05:30:05;;;;;;;4.65;1.75;;;;;;;15.37;100.00;101565.22;5066512;28;20049;-68
2023/09/05 05:32:32;;;;;;;4.20;1.50;;;;;;;15.34;100.00;101568.81;5069079;28;20055;-69
2023/09/05 05:34:59;;;;;;;3.83;1.65;;;;;;;15.28;100.00;101568.22;5068516;28;20055;-68
2023/09/05 05:37:25;;;;;;;5.40;1.70;;;;;;;15.30;100.00;101579.59;5071558;28;20075;-69
2023/09/05 05:39:52;;;;;;;4.72;1.63;;;;;;;15.23;100.00;101568.47;5073060;28;20056;-69
2023/09/05 05:42:19;;;;;;;5.75;1.75;;;;;;;15.35;100.00;101588.16;5056865;28;20056;-69
2023/09/05 05:44:46;;;;;;;5.05;1.98;;;;;;;15.24;100.00;101588.63;5064326;28;20048;-69
2023/09/05 05:47:12;;;;;;;5.38;1.83;;;;;;;15.17;100.00;101573.97;5060634;28;20052;-68
2023/09/05 05:49:39;;;;;;;6.88;2.00;;;;;;;15.36;100.00;101588.09;5067757;28;20048;-69
2023/09/05 05:52:08;;;;;;;6.70;2.35;;;;;;;15.42;100.00;101588.75;5060944;28;20080;-69
2023/09/05 05:54:34;;;;;;;5.85;2.03;;;;;;;15.41;100.00;101587.03;5065416;28;20376;-69
2023/09/05 05:57:02;;;;;;;7.38;2.30;;;;;;;15.37;100.00;101594.25;5069419;28;20052;-68
2023/09/05 05:59:29;;;;;;;7.38;2.33;;;;;;;15.28;100.00;101582.31;5058246;28;20045;-68
2023/09/05 06:01:56;;;;;;;6.55;2.38;;;;;;;15.07;100.00;101580.56;5066789;28;20474;-68
2023/09/05 06:04:24;;;;;;;7.95;2.17;;;;;;;15.31;100.00;101590.06;5062885;28;20113;-69
2023/09/05 06:06:52;;;;;;;7.93;2.20;;;;;;;15.51;100.00;101593.59;5057215;28;20185;-68
2023/09/05 06:09:19;;;;;;;8.00;2.15;;;;;;;15.60;100.00;101590.56;5055306;28;20048;-68
2023/09/05 06:11:46;;;;;;;6.57;2.40;;;;;;;15.36;100.00;101592.50;5065267;28;20483;-69
2023/09/05 06:14:14;;;;;;;5.82;2.13;;;;;;;15.55;100.00;101600.47;5060014;28;20378;-68
2023/09/05 06:16:44;;;;;;;8.10;2.90;;;;;;;15.27;100.00;101612.25;5064710;28;20052;-69
2023/09/05 06:19:12;;;;;;;5.95;2.13;;;;;;;15.27;100.00;101614.03;5063479;28;20547;-68
2023/09/05 06:21:38;;;;;;;5.43;1.85;;;;;;;15.35;100.00;101602.22;5058440;28;20055;-69
2023/09/05 06:24:05;;;;;;;5.75;2.13;;;;;;;15.36;100.00;101616.25;5059188;28;20131;-68
2023/09/05 06:26:32;;;;;;;3.75;1.48;;;;;;;15.55;100.00;101621.59;5065621;28;20044;-68
2023/09/05 06:28:59;;;;;;;3.58;1.50;;;;;;;15.75;100.00;101626.84;5055221;28;20158;-68
2023/09/05 06:31:25;;;;;;;5.13;1.75;;;;;;;15.73;100.00;101628.69;5058163;28;20493;-68
2023/09/05 06:33:52;;;;;;;4.13;1.50;;;;;;;15.91;100.00;101628.81;5071689;28;20079;-68
2023/09/05 06:36:19;;;;;;;5.43;1.85;;;;;;;15.91;100.00;101623.53;5063226;28;20040;-68
2023/09/05 06:38:45;;;;;;;3.95;1.67;;;;;;;15.95;100.00;101635.66;5069302;28;20048;-68
2023/09/05 06:41:12;;;;;;;4.75;1.70;;;;;;;16.00;100.00;101624.88;5075537;28;20159;-69
2023/09/05 06:43:41;;;;;;;6.22;2.13;;;;;;;16.04;100.00;101634.38;5060588;28;20140;-69
2023/09/05 06:46:08;;;;;;;3.72;1.50;;;;;;;16.09;100.00;101627.09;5071422;28;20401;-69
2023/09/05 06:48:38;;;;;;;4.38;1.70;;;;;;;16.19;100.00;101646.88;5056598;28;20049;-68
2023/09/05 06:51:05;;;;;;;5.70;1.98;;;;;;;16.28;100.00;101638.50;5076613;28;20076;-68
2023/09/05 06:53:33;;;;;;;3.83;1.60;;;;;;;16.44;100.00;101636.00;5061163;28;20057;-68
2023/09/05 06:55:59;;;;;;;6.10;1.70;;;;;;;17.69;100.00;101627.09;5066296;28;20125;-68
2023/09/05 06:58:26;;;;;;;6.22;2.42;;;;;;;18.99;100.00;101620.78;5065012;28;20115;-69
2023/09/05 07:00:54;;;;;;;5.55;2.00;;;;;;;19.16;100.00;101631.25;5057978;28;20073;-69
2023/09/05 07:03:22;;;;;;;6.07;2.22;;;;;;;19.58;100.00;101631.38;5054090;28;20052;-69
2023/09/05 07:05:50;;;;;;;6.88;2.00;;;;;;;20.26;100.00;101628.03;5065575;28;20059;-69
2023/09/05 07:08:31;;;;;;;5.22;1.98;;;;;;;20.60;100.00;101635.63;5058660;28;20049;-69
2023/09/05 07:10:58;;;;;;;5.85;2.13;;;;;;;20.99;100.00;101639.28;5057485;28;20058;-69
2023/09/05 07:13:25;;;;;;;4.10;1.50;;;;;;;21.48;100.00;101645.75;5071792;28;20044;-69
2023/09/05 07:15:53;;;;;;;4.47;1.80;;;;;;;21.72;100.00;101646.69;5070866;28;20044;-69
2023/09/05 07:18:23;;;;;;;7.53;1.92;;;;;;;21.61;100.00;101651.94;5065336;28;20053;-69
2023/09/05 07:20:51;;;;;;;5.07;1.60;;;;;;;20.41;100.00;101635.97;5066295;28;20057;-69
2023/09/05 07:23:18;;;;;;;6.60;1.40;;;;;;;19.51;100.00;101649.53;5071816;28;20123;-67
2023/09/05 07:25:45;;;;;;;2.67;1.20;;;;;;;19.87;100.00;101650.88;5071561;28;20072;-69
2023/09/05 07:28:12;;;;;;;5.38;1.20;;;;;;;20.36;100.00;101657.56;5066930;28;20041;-67
2023/09/05 07:30:39;;;;;;;6.35;1.30;;;;;;;20.73;100.00;101663.16;5063455;28;20062;-67
2023/09/05 07:33:06;;;;;;;4.97;1.52;;;;;;;21.28;100.00;101663.09;5069925;28;20048;-68
2023/09/05 07:35:33;;;;;;;6.80;1.20;;;;;;;21.89;100.00;101669.53;5071152;28;20106;-68
2023/09/05 07:38:00;;;;;;;3.22;1.10;;;;;;;22.05;100.00;101671.94;5070065;28;20070;-68
2023/09/05 07:40:26;;;;;;;4.30;1.15;;;;;;;21.94;100.00;101674.53;5060668;28;20191;-68
2023/09/05 07:42:53;;;;;;;3.70;1.25;;;;;;;22.29;100.00;101674.72;5070402;28;20466;-67
2023/09/05 07:45:21;;;;;;;4.35;1.27;;;;;;;22.70;100.00;101673.47;5062481;28;20441;-68
2023/09/05 07:47:47;;;;;;;5.30;1.80;;;;;;;22.43;100.00;101662.16;5059684;28;20057;-68
2023/09/05 07:50:14;;;;;;;3.25;1.27;;;;;;;21.25;100.00;101674.81;5069475;28;20091;-68
2023/09/05 07:52:41;;;;;;;4.07;1.00;;;;;;;21.07;100.00;101655.63;5058446;28;20051;-68
2023/09/05 07:55:08;;;;;;;2.58;0.90;;;;;;;21.79;100.00;101669.28;5069598;28;20473;-68
2023/09/05 07:57:36;;;;;;;2.13;0.80;;;;;;;22.22;100.00;101683.22;5066358;28;20247;-68
2023/09/05 08:00:03;;;;;;;5.53;1.27;;;;;;;22.40;100.00;101673.06;5066967;28;20091;-67
2023/09/05 08:02:30;;;;;;;4.97;1.23;;;;;;;22.93;100.00;101666.41;5064444;28;20055;-68
2023/09/05 08:04:59;;;;;;;6.88;1.17;;;;;;;23.06;100.00;101657.50;5061854;28;20044;-68
2023/09/05 08:07:26;;;;;;;4.50;1.17;;;;;;;23.59;100.00;101665.88;5071215;28;20082;-69
2023/09/05 08:09:52;;;;;;;5.43;1.42;;;;;;;23.11;100.00;101671.38;5060904;28;20071;-68
2023/09/05 08:12:19;;;;;;;4.25;1.00;;;;;;;23.61;94.31;101668.44;5068325;28;20055;-67
2023/09/05 08:14:46;;;;;;;5.53;1.00;;;;;;;23.35;97.62;101659.75;5069714;28;20131;-67
2023/09/05 08:17:12;;;;;;;3.97;1.00;;;;;;;23.59;96.97;101673.91;5066083;28;20415;-67
2023/09/05 08:19:39;;;;;;;4.30;1.00;;;;;;;23.65;91.08;101675.22;5049193;28;20459;-67
2023/09/05 08:22:06;;;;;;;3.55;1.10;;;;;;;23.75;88.27;101676.22;5051684;28;20096;-68
2023/09/05 08:24:33;;;;;;;4.35;1.20;;;;;;;23.43;85.78;101687.59;5054960;28;20055;-68
2023/09/05 08:27:02;;;;;;;4.88;1.20;;;;;;;23.19;88.34;101686.81;5056289;28;20128;-67
2023/09/05 08:29:28;;;;;;;3.28;0.90;;;;;;;24.18;88.85;101690.69;5055042;28;20453;-68
2023/09/05 08:31:55;;;;;;;4.05;1.20;;;;;;;24.01;79.22;101694.72;5060800;28;20055;-67
2023/09/05 08:34:22;;;;;;;4.15;0.90;;;;;;;23.81;89.51;101690.94;5066721;28;20123;-67
2023/09/05 08:36:48;;;;;;;3.97;1.13;;;;;;;23.58;82.97;101706.94;5063636;28;20071;-67
2023/09/05 08:39:15;;;;;;;4.03;1.05;;;;;;;23.76;85.09;101682.41;5064931;28;20052;-67
2023/09/05 08:41:43;;;;;;;4.07;1.13;;;;;;;23.75;81.63;101696.78;5070519;28;20045;-67
2023/09/05 08:44:10;;;;;;;4.82;1.45;;;;;;;23.17;83.58;101691.41;5069907;28;20070;-69
2023/09/05 08:46:39;;;;;;;3.45;1.10;;;;;;;23.38;85.17;101700.47;5071017;28;20053;-67
2023/09/05 08:49:06;;;;;;;3.78;1.20;;;;;;;23.72;83.40;101697.00;5069128;28;20044;-67
2023/09/05 08:51:35;;;;;;;3.20;0.93;;;;;;;23.44;87.71;101708.03;5066513;28;20398;-67
2023/09/05 08:54:03;;;;;;;3.65;1.10;;;;;;;23.10;92.70;101710.56;5060925;28;20052;-69
2023/09/05 08:56:30;;;;;;;3.15;0.90;;;;;;;23.39;89.42;101691.50;5069713;28;20044;-67
2023/09/05 08:59:00;;;;;;;2.30;0.90;;;;;;;22.90;93.39;101703.19;5059970;28;20067;-67
2023/09/05 09:01:29;;;;;;;3.13;1.00;;;;;;;22.93;95.11;101700.28;5060275;28;20044;-67
2023/09/05 09:03:57;;;;;;;2.88;1.00;;;;;;;22.47;100.00;101720.53;5066355;28;20044;-67
2023/09/05 09:06:25;;;;;;;5.10;1.15;;;;;;;22.91;100.00;101731.56;5063708;28;20053;-67
2023/09/05 09:08:53;;;;;;;4.97;1.35;;;;;;;23.08;98.54;101712.50;5068381;28;20080;-67
2023/09/05 09:11:22;;;;;;;3.95;1.10;;;;;;;22.53;100.00;101717.41;5063624;28;20061;-67
2023/09/05 09:13:51;;;;;;;6.80;1.67;;;;;;;22.68;100.00;101725.25;5070436;28;20131;-67
2023/09/05 09:16:18;;;;;;;4.88;1.40;;;;;;;22.51;100.00;101721.16;5070567;28;20040;-66
2023/09/05 09:18:49;;;;;;;5.38;1.40;;;;;;;23.05;100.00;101720.75;5052366;28;20060;-67
2023/09/05 09:21:21;;;;;;;3.78;1.10;;;;;;;23.01;100.00;101732.59;5060044;28;20471;-67
2023/09/05 09:24:06;;;;;;;5.47;1.23;;;;;;;23.16;100.00;101725.31;5065541;28;20052;-67
2023/09/05 09:26:33;;;;;;;3.80;1.10;;;;;;;23.26;100.00;101720.09;5068709;28;20075;-67
2023/09/05 09:29:00;;;;;;;4.72;1.23;;;;;;;23.03;100.00;101722.66;5052979;28;20133;-67
2023/09/05 09:31:27;;;;;;;6.50;1.85;;;;;;;23.16;100.00;101725.31;5059879;28;20044;-67
2023/09/05 09:33:56;;;;;;;3.85;1.20;;;;;;;23.38;100.00;101732.53;5070290;28;20391;-67
2023/09/05 09:36:33;;;;;;;5.47;1.30;;;;;;;23.49;100.00;101727.19;5069945;28;20044;-67
2023/09/05 09:39:10;;;;;;;5.50;1.70;;;;;;;23.27;100.00;101716.47;5068819;28;20508;-66
2023/09/05 09:41:43;;;;;;;5.35;1.33;;;;;;;23.34;100.00;101723.06;5060931;28;20073;-69
2023/09/05 09:44:25;;;;;;;7.10;1.58;;;;;;;23.26;100.00;101702.25;5070165;28;20056;-67
2023/09/05 09:46:54;;;;;;;4.63;1.20;;;;;;;23.25;100.00;101711.25;5067498;28;20518;-66
2023/09/05 09:49:26;;;;;;;4.65;1.15;;;;;;;23.47;100.00;101714.94;5054081;28;20569;-67
2023/09/05 09:51:55;;;;;;;5.13;1.15;;;;;;;23.77;100.00;101708.19;5064641;28;20146;-67
2023/09/05 09:54:33;;;;;;;3.42;1.20;;;;;;;23.76;100.00;101710.03;5070188;28;20051;-67
2023/09/05 09:57:04;;;;;;;4.57;1.45;;;;;;;23.93;100.00;101713.22;5065469;28;20056;-67
2023/09/05 09:59:36;;;;;;;3.78;1.30;;;;;;;23.70;100.00;101707.81;5059313;28;20048;-67
2023/09/05 10:02:12;;;;;;;4.45;1.35;;;;;;;24.06;100.00;101709.44;5069501;28;20115;-68
2023/09/05 10:04:44;;;;;;;5.53;1.20;;;;;;;24.28;100.00;101717.59;5067536;28;20080;-68
2023/09/05 10:07:14;;;;;;;4.85;1.20;;;;;;;24.19;100.00;101711.16;5070172;28;20079;-68
2023/09/05 10:09:44;;;;;;;6.05;1.30;;;;;;;24.13;100.00;101717.81;5070367;28;20048;-68
2023/09/05 10:12:13;;;;;;;6.55;1.40;;;;;;;24.19;100.00;101713.81;5069484;28;20131;-68
2023/09/05 10:14:40;;;;;;;6.05;1.35;;;;;;;24.08;100.00;101722.69;5050883;28;20081;-68
2023/09/05 10:17:07;;;;;;;8.43;1.63;;;;;;;24.16;100.00;101722.09;5061969;28;20679;-68
2023/09/05 10:19:35;;;;;;;4.70;1.40;;;;;;;24.28;100.00;101714.91;5069560;28;20045;-68
2023/09/05 10:22:03;;;;;;;6.32;1.55;;;;;;;24.07;100.00;101700.44;5059349;28;20386;-68
2023/09/05 10:24:31;;;;;;;5.85;1.50;;;;;;;24.19;100.00;101714.66;5067698;28;20051;-68
2023/09/05 10:26:58;;;;;;;6.22;1.40;;;;;;;23.98;100.00;101721.72;5073295;28;20048;-68
2023/09/05 10:29:35;;;;;;;6.00;1.60;;;;;;;24.13;100.00;101711.63;5072261;28;20519;-68
2023/09/05 10:32:02;;;;;;;10.00;1.90;;;;;;;23.75;100.00;101713.66;5067409;28;20052;-68
2023/09/05 10:34:47;;;;;;;5.93;1.10;;;;;;;24.10;100.00;101719.88;5064613;28;20045;-67
2023/09/05 10:37:18;;;;;;;5.90;1.52;;;;;;;23.84;100.00;101717.47;5072654;28;20473;-67
2023/09/05 10:39:54;;;;;;;6.15;1.48;;;;;;;24.12;100.00;101709.94;5072888;28;20395;-67
2023/09/05 10:42:28;;;;;;;4.75;1.45;;;;;;;24.30;100.00;101716.47;5072155;28;20055;-68
2023/09/05 10:44:56;;;;;;;5.07;1.45;;;;;;;24.57;100.00;101716.09;5070222;28;20055;-67
2023/09/05 10:47:27;;;;;;;9.85;2.25;;;;;;;24.15;100.00;101725.72;5062367;28;20052;-68
2023/09/05 10:49:57;;;;;;;7.03;1.92;;;;;;;23.88;100.00;101717.09;5071655;28;20051;-68
2023/09/05 10:52:27;;;;;;;8.25;1.90;;;;;;;23.47;100.00;101709.59;5070240;28;20048;-68
2023/09/05 10:54:54;;;;;;;6.18;1.40;;;;;;;23.74;100.00;101719.97;5072424;28;20138;-68
2023/09/05 10:57:33;;;;;;;7.15;1.92;;;;;;;23.94;100.00;101729.16;5072571;28;20434;-68
2023/09/05 11:00:11;;;;;;;7.22;1.60;;;;;;;23.69;100.00;101719.47;5072762;28;20106;-68
2023/09/05 11:02:40;;;;;;;8.38;2.00;;;;;;;23.59;100.00;101723.84;5064826;28;20045;-68
2023/09/05 11:05:11;;;;;;;9.00;1.90;;;;;;;23.57;100.00;101720.41;5064095;28;20053;-67
2023/09/05 11:07:42;;;;;;;8.20;1.75;;;;;;;23.40;100.00;101714.56;5072884;28;20408;-67
2023/09/05 11:10:25;;;;;;;11.48;2.13;;;;;;;23.36;100.00;101722.94;5073047;28;20135;-68
2023/09/05 11:12:51;;;;;;;6.78;1.83;;;;;;;23.76;100.00;101727.88;5052593;28;20053;-68
2023/09/05 11:15:31;;;;;;;7.82;1.88;;;;;;;23.23;100.00;101709.63;5065459;28;20045;-68
2023/09/05 11:18:05;;;;;;;10.90;2.13;;;;;;;23.29;100.00;101725.22;5072717;28;20044;-68
2023/09/05 11:20:39;;;;;;;7.80;1.95;;;;;;;23.04;100.00;101729.72;5072151;28;20136;-68
2023/09/05 11:23:16;;;;;;;6.18;1.90;;;;;;;23.18;100.00;101722.50;5072927;28;20052;-68